sensor_id;sensor_type;location;lat;lon;timestamp;P1;durP1;ratioP1;P2;durP2;ratioP2
10096;SDS011;5087;42.662;23.466;2023-08-17T00:01:23;0.10;;;0.10;;
10096;SDS011;5087;42.662;23.466;2023-08-17T00:03:50;0.10;;;0.10;;
10096;SDS011;5087;42.662;23.466;2023-08-17T00:06:18;0.10;;;0.10;;
10096;SDS011;5087;42.662;23.466;2023-08-17T00:08:46;0.10;;;0.10;;
10096;SDS011;5087;42.662;23.466;2023-08-17T00:11:13;0.10;;;0.10;;
10096;SDS011;5087;42.662;23.466;2023-08-17T00:13:40;0.20;;;0.20;;
10096;SDS011;5087;42.662;23.466;2023-08-17T00:16:08;0.90;;;0.90;;
10096;SDS011;5087;42.662;23.466;2023-08-17T00:18:35;0.20;;;0.20;;
10096;SDS011;5087;42.662;23.466;2023-08-17T00:21:03;0.20;;;0.20;;
10096;SDS011;5087;42.662;23.466;2023-08-17T00:23:30;0.23;;;0.23;;
10096;SDS011;5087;42.662;23.466;2023-08-17T00:26:05;0.20;;;0.20;;
10096;SDS011;5087;42.662;23.466;2023-08-17T00:28:32;0.30;;;0.30;;
10096;SDS011;5087;42.662;23.466;2023-08-17T00:30:59;0.20;;;0.20;;
10096;SDS011;5087;42.662;23.466;2023-08-17T00:33:26;0.20;;;0.20;;
10096;SDS011;5087;42.662;23.466;2023-08-17T00:35:54;0.30;;;0.30;;
10096;SDS011;5087;42.662;23.466;2023-08-17T00:38:21;0.10;;;0.10;;
10096;SDS011;5087;42.662;23.466;2023-08-17T00:40:48;0.20;;;0.20;;
10096;SDS011;5087;42.662;23.466;2023-08-17T00:43:17;0.17;;;0.17;;
10096;SDS011;5087;42.662;23.466;2023-08-17T00:45:44;0.20;;;0.20;;
10096;SDS011;5087;42.662;23.466;2023-08-17T00:48:13;0.20;;;0.20;;
10096;SDS011;5087;42.662;23.466;2023-08-17T00:50:41;0.10;;;0.10;;
10096;SDS011;5087;42.662;23.466;2023-08-17T00:53:10;0.20;;;0.20;;
10096;SDS011;5087;42.662;23.466;2023-08-17T00:55:39;0.93;;;0.93;;
10096;SDS011;5087;42.662;23.466;2023-08-17T00:58:11;0.30;;;0.30;;
10096;SDS011;5087;42.662;23.466;2023-08-17T01:00:41;0.30;;;0.30;;
10096;SDS011;5087;42.662;23.466;2023-08-17T01:03:09;0.30;;;0.30;;
10096;SDS011;5087;42.662;23.466;2023-08-17T01:05:37;0.30;;;0.30;;
10096;SDS011;5087;42.662;23.466;2023-08-17T01:08:04;0.40;;;0.40;;
10096;SDS011;5087;42.662;23.466;2023-08-17T01:10:36;0.30;;;0.30;;
10096;SDS011;5087;42.662;23.466;2023-08-17T01:13:12;0.33;;;0.33;;
10096;SDS011;5087;42.662;23.466;2023-08-17T01:15:47;0.40;;;0.40;;
10096;SDS011;5087;42.662;23.466;2023-08-17T01:18:21;0.50;;;0.50;;
10096;SDS011;5087;42.662;23.466;2023-08-17T01:20:50;0.40;;;0.40;;
10096;SDS011;5087;42.662;23.466;2023-08-17T01:23:21;0.40;;;0.40;;
10096;SDS011;5087;42.662;23.466;2023-08-17T01:25:48;0.60;;;0.60;;
10096;SDS011;5087;42.662;23.466;2023-08-17T01:28:15;0.70;;;0.70;;
10096;SDS011;5087;42.662;23.466;2023-08-17T01:30:44;0.40;;;0.40;;
10096;SDS011;5087;42.662;23.466;2023-08-17T01:33:18;0.30;;;0.30;;
10096;SDS011;5087;42.662;23.466;2023-08-17T01:35:53;0.30;;;0.30;;
10096;SDS011;5087;42.662;23.466;2023-08-17T01:38:29;0.30;;;0.30;;
10096;SDS011;5087;42.662;23.466;2023-08-17T01:40:58;1.60;;;0.40;;
10096;SDS011;5087;42.662;23.466;2023-08-17T01:43:27;0.30;;;0.30;;
10096;SDS011;5087;42.662;23.466;2023-08-17T01:45:56;0.70;;;0.70;;
10096;SDS011;5087;42.662;23.466;2023-08-17T01:48:23;0.43;;;0.43;;
10096;SDS011;5087;42.662;23.466;2023-08-17T01:50:50;0.87;;;0.37;;
10096;SDS011;5087;42.662;23.466;2023-08-17T01:53:19;1.70;;;0.70;;
10096;SDS011;5087;42.662;23.466;2023-08-17T01:55:48;0.20;;;0.20;;
10096;SDS011;5087;42.662;23.466;2023-08-17T01:58:15;0.27;;;0.27;;
10096;SDS011;5087;42.662;23.466;2023-08-17T02:00:42;0.20;;;0.20;;
10096;SDS011;5087;42.662;23.466;2023-08-17T02:03:10;0.30;;;0.30;;
10096;SDS011;5087;42.662;23.466;2023-08-17T02:05:37;0.20;;;0.20;;
10096;SDS011;5087;42.662;23.466;2023-08-17T02:08:04;0.20;;;0.20;;
10096;SDS011;5087;42.662;23.466;2023-08-17T02:10:32;0.20;;;0.20;;
10096;SDS011;5087;42.662;23.466;2023-08-17T02:13:02;0.20;;;0.20;;
10096;SDS011;5087;42.662;23.466;2023-08-17T02:15:29;0.10;;;0.10;;
10096;SDS011;5087;42.662;23.466;2023-08-17T02:17:57;0.10;;;0.10;;
10096;SDS011;5087;42.662;23.466;2023-08-17T02:20:28;0.10;;;0.10;;
10096;SDS011;5087;42.662;23.466;2023-08-17T02:22:56;0.10;;;0.10;;
10096;SDS011;5087;42.662;23.466;2023-08-17T02:25:23;0.10;;;0.10;;
10096;SDS011;5087;42.662;23.466;2023-08-17T02:27:51;0.10;;;0.10;;
10096;SDS011;5087;42.662;23.466;2023-08-17T02:30:19;0.10;;;0.10;;
10096;SDS011;5087;42.662;23.466;2023-08-17T02:32:46;0.20;;;0.20;;
10096;SDS011;5087;42.662;23.466;2023-08-17T02:35:14;0.30;;;0.30;;
10096;SDS011;5087;42.662;23.466;2023-08-17T02:37:41;0.10;;;0.10;;
10096;SDS011;5087;42.662;23.466;2023-08-17T02:40:08;0.10;;;0.10;;
10096;SDS011;5087;42.662;23.466;2023-08-17T02:42:36;0.23;;;0.23;;
10096;SDS011;5087;42.662;23.466;2023-08-17T02:45:05;0.20;;;0.20;;
10096;SDS011;5087;42.662;23.466;2023-08-17T02:47:36;0.20;;;0.20;;
10096;SDS011;5087;42.662;23.466;2023-08-17T02:50:03;0.20;;;0.20;;
10096;SDS011;5087;42.662;23.466;2023-08-17T02:52:32;0.40;;;0.40;;
10096;SDS011;5087;42.662;23.466;2023-08-17T02:54:59;0.20;;;0.20;;
10096;SDS011;5087;42.662;23.466;2023-08-17T02:57:27;0.30;;;0.30;;
10096;SDS011;5087;42.662;23.466;2023-08-17T02:59:54;0.20;;;0.20;;
10096;SDS011;5087;42.662;23.466;2023-08-17T03:02:21;0.30;;;0.30;;
10096;SDS011;5087;42.662;23.466;2023-08-17T03:04:49;0.20;;;0.20;;
10096;SDS011;5087;42.662;23.466;2023-08-17T03:07:17;0.20;;;0.20;;
10096;SDS011;5087;42.662;23.466;2023-08-17T03:09:44;0.20;;;0.20;;
10096;SDS011;5087;42.662;23.466;2023-08-17T03:12:12;0.20;;;0.20;;
10096;SDS011;5087;42.662;23.466;2023-08-17T03:14:39;0.10;;;0.10;;
10096;SDS011;5087;42.662;23.466;2023-08-17T03:17:06;0.10;;;0.10;;
10096;SDS011;5087;42.662;23.466;2023-08-17T03:19:34;0.13;;;0.13;;
10096;SDS011;5087;42.662;23.466;2023-08-17T03:22:03;0.27;;;0.27;;
10096;SDS011;5087;42.662;23.466;2023-08-17T03:24:30;0.10;;;0.10;;
10096;SDS011;5087;42.662;23.466;2023-08-17T03:26:59;0.10;;;0.10;;
10096;SDS011;5087;42.662;23.466;2023-08-17T03:29:27;0.10;;;0.10;;
10096;SDS011;5087;42.662;23.466;2023-08-17T03:31:55;0.10;;;0.10;;
10096;SDS011;5087;42.662;23.466;2023-08-17T03:34:23;0.00;;;0.00;;
10096;SDS011;5087;42.662;23.466;2023-08-17T03:36:50;0.00;;;0.00;;
10096;SDS011;5087;42.662;23.466;2023-08-17T03:39:19;0.10;;;0.10;;
10096;SDS011;5087;42.662;23.466;2023-08-17T03:41:46;0.00;;;0.00;;
10096;SDS011;5087;42.662;23.466;2023-08-17T03:44:14;0.13;;;0.13;;
10096;SDS011;5087;42.662;23.466;2023-08-17T03:46:42;0.00;;;0.00;;
10096;SDS011;5087;42.662;23.466;2023-08-17T03:49:09;0.00;;;0.00;;
10096;SDS011;5087;42.662;23.466;2023-08-17T03:51:37;0.10;;;0.10;;
10096;SDS011;5087;42.662;23.466;2023-08-17T03:54:04;0.00;;;0.00;;
10096;SDS011;5087;42.662;23.466;2023-08-17T03:56:33;0.00;;;0.00;;
10096;SDS011;5087;42.662;23.466;2023-08-17T03:59:02;0.00;;;0.00;;
10096;SDS011;5087;42.662;23.466;2023-08-17T04:01:30;0.00;;;0.00;;
10096;SDS011;5087;42.662;23.466;2023-08-17T04:03:57;0.00;;;0.00;;
10096;SDS011;5087;42.662;23.466;2023-08-17T04:06:25;0.00;;;0.00;;
10096;SDS011;5087;42.662;23.466;2023-08-17T04:08:52;0.00;;;0.00;;
10096;SDS011;5087;42.662;23.466;2023-08-17T04:11:19;0.20;;;0.20;;
10096;SDS011;5087;42.662;23.466;2023-08-17T04:13:49;0.10;;;0.10;;
10096;SDS011;5087;42.662;23.466;2023-08-17T04:16:20;0.10;;;0.10;;
10096;SDS011;5087;42.662;23.466;2023-08-17T04:18:48;0.20;;;0.20;;
10096;SDS011;5087;42.662;23.466;2023-08-17T04:21:15;0.20;;;0.20;;
10096;SDS011;5087;42.662;23.466;2023-08-17T04:23:42;0.30;;;0.30;;
10096;SDS011;5087;42.662;23.466;2023-08-17T04:26:10;0.40;;;0.40;;
10096;SDS011;5087;42.662;23.466;2023-08-17T04:28:37;0.40;;;0.40;;
10096;SDS011;5087;42.662;23.466;2023-08-17T04:31:06;0.50;;;0.50;;
10096;SDS011;5087;42.662;23.466;2023-08-17T04:33:37;0.50;;;0.50;;
10096;SDS011;5087;42.662;23.466;2023-08-17T04:36:04;0.60;;;0.60;;
10096;SDS011;5087;42.662;23.466;2023-08-17T04:38:32;0.50;;;0.50;;
10096;SDS011;5087;42.662;23.466;2023-08-17T04:40:59;0.50;;;0.50;;
10096;SDS011;5087;42.662;23.466;2023-08-17T04:43:30;0.40;;;0.40;;
10096;SDS011;5087;42.662;23.466;2023-08-17T04:45:57;0.40;;;0.40;;
10096;SDS011;5087;42.662;23.466;2023-08-17T04:48:26;0.47;;;0.47;;
10096;SDS011;5087;42.662;23.466;2023-08-17T04:50:54;0.40;;;0.40;;
10096;SDS011;5087;42.662;23.466;2023-08-17T04:53:21;0.50;;;0.50;;
10096;SDS011;5087;42.662;23.466;2023-08-17T04:55:49;0.50;;;0.50;;
10096;SDS011;5087;42.662;23.466;2023-08-17T04:58:16;0.50;;;0.50;;
10096;SDS011;5087;42.662;23.466;2023-08-17T05:00:47;0.50;;;0.50;;
10096;SDS011;5087;42.662;23.466;2023-08-17T05:03:17;0.50;;;0.50;;
10096;SDS011;5087;42.662;23.466;2023-08-17T05:05:46;0.67;;;0.67;;
10096;SDS011;5087;42.662;23.466;2023-08-17T05:08:13;0.70;;;0.70;;
10096;SDS011;5087;42.662;23.466;2023-08-17T05:10:41;0.70;;;0.70;;
10096;SDS011;5087;42.662;23.466;2023-08-17T05:13:08;0.70;;;0.70;;
10096;SDS011;5087;42.662;23.466;2023-08-17T05:15:36;0.60;;;0.60;;
10096;SDS011;5087;42.662;23.466;2023-08-17T05:18:07;0.60;;;0.60;;
10096;SDS011;5087;42.662;23.466;2023-08-17T05:20:36;0.60;;;0.60;;
10096;SDS011;5087;42.662;23.466;2023-08-17T05:23:04;0.67;;;0.67;;
10096;SDS011;5087;42.662;23.466;2023-08-17T05:25:32;0.70;;;0.70;;
10096;SDS011;5087;42.662;23.466;2023-08-17T05:28:01;1.00;;;0.90;;
10096;SDS011;5087;42.662;23.466;2023-08-17T05:30:28;0.60;;;0.60;;
10096;SDS011;5087;42.662;23.466;2023-08-17T05:32:56;0.63;;;0.63;;
10096;SDS011;5087;42.662;23.466;2023-08-17T05:35:23;0.60;;;0.60;;
10096;SDS011;5087;42.662;23.466;2023-08-17T05:37:50;0.60;;;0.60;;
10096;SDS011;5087;42.662;23.466;2023-08-17T05:40:19;0.70;;;0.70;;
10096;SDS011;5087;42.662;23.466;2023-08-17T05:42:46;0.83;;;0.83;;
10096;SDS011;5087;42.662;23.466;2023-08-17T05:45:13;1.60;;;0.97;;
10096;SDS011;5087;42.662;23.466;2023-08-17T05:47:40;0.80;;;0.80;;
10096;SDS011;5087;42.662;23.466;2023-08-17T05:50:07;0.90;;;0.90;;
10096;SDS011;5087;42.662;23.466;2023-08-17T05:52:35;0.90;;;0.90;;
10096;SDS011;5087;42.662;23.466;2023-08-17T05:55:02;1.00;;;1.00;;
10096;SDS011;5087;42.662;23.466;2023-08-17T05:57:31;1.00;;;1.00;;
10096;SDS011;5087;42.662;23.466;2023-08-17T05:59:58;0.80;;;0.80;;
10096;SDS011;5087;42.662;23.466;2023-08-17T06:02:25;1.10;;;1.10;;
10096;SDS011;5087;42.662;23.466;2023-08-17T06:04:52;0.90;;;0.90;;
10096;SDS011;5087;42.662;23.466;2023-08-17T06:07:19;0.90;;;0.90;;
10096;SDS011;5087;42.662;23.466;2023-08-17T06:09:46;0.90;;;0.90;;
10096;SDS011;5087;42.662;23.466;2023-08-17T06:12:13;1.07;;;1.07;;
10096;SDS011;5087;42.662;23.466;2023-08-17T06:14:42;0.73;;;0.73;;
10096;SDS011;5087;42.662;23.466;2023-08-17T06:17:09;0.70;;;0.70;;
10096;SDS011;5087;42.662;23.466;2023-08-17T06:19:36;0.60;;;0.60;;
10096;SDS011;5087;42.662;23.466;2023-08-17T06:22:04;0.80;;;0.80;;
10096;SDS011;5087;42.662;23.466;2023-08-17T06:24:32;0.70;;;0.70;;
10096;SDS011;5087;42.662;23.466;2023-08-17T06:26:59;1.13;;;1.13;;
10096;SDS011;5087;42.662;23.466;2023-08-17T06:29:27;0.90;;;0.90;;
10096;SDS011;5087;42.662;23.466;2023-08-17T06:31:57;0.90;;;0.90;;
10096;SDS011;5087;42.662;23.466;2023-08-17T06:34:24;0.80;;;0.80;;
10096;SDS011;5087;42.662;23.466;2023-08-17T06:36:58;1.10;;;1.10;;
10096;SDS011;5087;42.662;23.466;2023-08-17T06:39:28;0.80;;;0.80;;
10096;SDS011;5087;42.662;23.466;2023-08-17T06:41:56;0.80;;;0.80;;
10096;SDS011;5087;42.662;23.466;2023-08-17T06:44:23;0.70;;;0.70;;
10096;SDS011;5087;42.662;23.466;2023-08-17T06:46:50;0.60;;;0.60;;
10096;SDS011;5087;42.662;23.466;2023-08-17T06:49:19;0.70;;;0.70;;
10096;SDS011;5087;42.662;23.466;2023-08-17T06:51:46;1.30;;;1.30;;
10096;SDS011;5087;42.662;23.466;2023-08-17T06:54:13;0.70;;;0.70;;
10096;SDS011;5087;42.662;23.466;2023-08-17T06:56:42;0.70;;;0.70;;
10096;SDS011;5087;42.662;23.466;2023-08-17T06:59:09;0.70;;;0.70;;
10096;SDS011;5087;42.662;23.466;2023-08-17T07:01:36;0.60;;;0.60;;
10096;SDS011;5087;42.662;23.466;2023-08-17T07:04:04;0.50;;;0.50;;
10096;SDS011;5087;42.662;23.466;2023-08-17T07:06:33;0.60;;;0.60;;
10096;SDS011;5087;42.662;23.466;2023-08-17T07:09:03;0.73;;;0.73;;
10096;SDS011;5087;42.662;23.466;2023-08-17T07:11:31;0.50;;;0.50;;
10096;SDS011;5087;42.662;23.466;2023-08-17T07:13:58;0.80;;;0.80;;
10096;SDS011;5087;42.662;23.466;2023-08-17T07:16:26;0.50;;;0.50;;
10096;SDS011;5087;42.662;23.466;2023-08-17T07:18:54;0.40;;;0.40;;
10096;SDS011;5087;42.662;23.466;2023-08-17T07:21:21;0.40;;;0.40;;
10096;SDS011;5087;42.662;23.466;2023-08-17T07:23:50;0.30;;;0.30;;
10096;SDS011;5087;42.662;23.466;2023-08-17T07:26:17;0.30;;;0.30;;
10096;SDS011;5087;42.662;23.466;2023-08-17T07:28:45;0.30;;;0.30;;
10096;SDS011;5087;42.662;23.466;2023-08-17T07:31:13;0.20;;;0.20;;
10096;SDS011;5087;42.662;23.466;2023-08-17T07:33:41;0.20;;;0.20;;
10096;SDS011;5087;42.662;23.466;2023-08-17T07:36:08;0.20;;;0.20;;
10096;SDS011;5087;42.662;23.466;2023-08-17T07:38:35;0.20;;;0.20;;
10096;SDS011;5087;42.662;23.466;2023-08-17T07:41:04;0.27;;;0.27;;
10096;SDS011;5087;42.662;23.466;2023-08-17T07:43:31;0.20;;;0.20;;
10096;SDS011;5087;42.662;23.466;2023-08-17T07:45:59;0.67;;;0.30;;
10096;SDS011;5087;42.662;23.466;2023-08-17T07:48:27;0.20;;;0.20;;
10096;SDS011;5087;42.662;23.466;2023-08-17T07:50:59;0.20;;;0.20;;
10096;SDS011;5087;42.662;23.466;2023-08-17T07:53:29;0.20;;;0.20;;
10096;SDS011;5087;42.662;23.466;2023-08-17T07:55:56;0.20;;;0.20;;
10096;SDS011;5087;42.662;23.466;2023-08-17T07:58:25;0.43;;;0.43;;
10096;SDS011;5087;42.662;23.466;2023-08-17T08:00:52;0.20;;;0.20;;
10096;SDS011;5087;42.662;23.466;2023-08-17T08:03:19;0.20;;;0.20;;
10096;SDS011;5087;42.662;23.466;2023-08-17T08:05:47;0.10;;;0.10;;
10096;SDS011;5087;42.662;23.466;2023-08-17T08:08:14;0.83;;;0.83;;
10096;SDS011;5087;42.662;23.466;2023-08-17T08:10:42;0.17;;;0.17;;
10096;SDS011;5087;42.662;23.466;2023-08-17T08:13:10;0.10;;;0.10;;
10096;SDS011;5087;42.662;23.466;2023-08-17T08:15:39;0.20;;;0.20;;
10096;SDS011;5087;42.662;23.466;2023-08-17T08:18:06;0.10;;;0.10;;
10096;SDS011;5087;42.662;23.466;2023-08-17T08:20:34;0.20;;;0.20;;
10096;SDS011;5087;42.662;23.466;2023-08-17T08:23:04;0.10;;;0.10;;
10096;SDS011;5087;42.662;23.466;2023-08-17T08:25:31;0.10;;;0.10;;
10096;SDS011;5087;42.662;23.466;2023-08-17T08:27:59;0.30;;;0.30;;
10096;SDS011;5087;42.662;23.466;2023-08-17T08:30:26;0.20;;;0.20;;
10096;SDS011;5087;42.662;23.466;2023-08-17T08:32:55;0.10;;;0.10;;
10096;SDS011;5087;42.662;23.466;2023-08-17T08:35:28;0.20;;;0.20;;
10096;SDS011;5087;42.662;23.466;2023-08-17T08:38:08;0.10;;;0.10;;
10096;SDS011;5087;42.662;23.466;2023-08-17T08:40:35;0.40;;;0.40;;
10096;SDS011;5087;42.662;23.466;2023-08-17T08:43:04;0.10;;;0.10;;
10096;SDS011;5087;42.662;23.466;2023-08-17T08:45:31;0.20;;;0.20;;
10096;SDS011;5087;42.662;23.466;2023-08-17T08:48:01;0.10;;;0.10;;
10096;SDS011;5087;42.662;23.466;2023-08-17T08:50:30;0.30;;;0.30;;
10096;SDS011;5087;42.662;23.466;2023-08-17T08:52:59;0.30;;;0.30;;
10096;SDS011;5087;42.662;23.466;2023-08-17T08:55:29;0.10;;;0.10;;
10096;SDS011;5087;42.662;23.466;2023-08-17T08:58:00;0.33;;;0.33;;
10096;SDS011;5087;42.662;23.466;2023-08-17T09:00:29;0.10;;;0.10;;
10096;SDS011;5087;42.662;23.466;2023-08-17T09:02:56;0.10;;;0.10;;
10096;SDS011;5087;42.662;23.466;2023-08-17T09:05:28;0.13;;;0.13;;
10096;SDS011;5087;42.662;23.466;2023-08-17T09:07:56;0.20;;;0.20;;
10096;SDS011;5087;42.662;23.466;2023-08-17T09:10:24;0.10;;;0.10;;
10096;SDS011;5087;42.662;23.466;2023-08-17T09:12:51;0.10;;;0.10;;
10096;SDS011;5087;42.662;23.466;2023-08-17T09:15:18;0.10;;;0.10;;
10096;SDS011;5087;42.662;23.466;2023-08-17T09:17:45;0.60;;;0.60;;
10096;SDS011;5087;42.662;23.466;2023-08-17T09:23:09;0.20;;;0.20;;
10096;SDS011;5087;42.662;23.466;2023-08-17T09:25:38;0.10;;;0.10;;
10096;SDS011;5087;42.662;23.466;2023-08-17T09:28:07;0.10;;;0.10;;
10096;SDS011;5087;42.662;23.466;2023-08-17T09:30:51;0.10;;;0.10;;
10096;SDS011;5087;42.662;23.466;2023-08-17T09:33:19;0.10;;;0.10;;
10096;SDS011;5087;42.662;23.466;2023-08-17T09:35:50;0.20;;;0.20;;
10096;SDS011;5087;42.662;23.466;2023-08-17T09:38:18;0.10;;;0.10;;
10096;SDS011;5087;42.662;23.466;2023-08-17T09:40:45;0.10;;;0.10;;
10096;SDS011;5087;42.662;23.466;2023-08-17T09:43:13;0.10;;;0.10;;
10096;SDS011;5087;42.662;23.466;2023-08-17T09:45:42;0.10;;;0.10;;
10096;SDS011;5087;42.662;23.466;2023-08-17T09:48:11;0.67;;;0.60;;
10096;SDS011;5087;42.662;23.466;2023-08-17T09:50:41;0.10;;;0.10;;
10096;SDS011;5087;42.662;23.466;2023-08-17T09:53:13;0.20;;;0.20;;
10096;SDS011;5087;42.662;23.466;2023-08-17T09:55:41;0.20;;;0.20;;
10096;SDS011;5087;42.662;23.466;2023-08-17T09:58:09;0.17;;;0.17;;
10096;SDS011;5087;42.662;23.466;2023-08-17T10:00:41;0.20;;;0.20;;
10096;SDS011;5087;42.662;23.466;2023-08-17T10:03:10;0.10;;;0.10;;
10096;SDS011;5087;42.662;23.466;2023-08-17T10:05:40;0.10;;;0.10;;
10096;SDS011;5087;42.662;23.466;2023-08-17T10:08:10;0.10;;;0.10;;
10096;SDS011;5087;42.662;23.466;2023-08-17T10:10:40;4.83;;;0.57;;
10096;SDS011;5087;42.662;23.466;2023-08-17T10:13:10;0.10;;;0.10;;
10096;SDS011;5087;42.662;23.466;2023-08-17T10:15:41;0.10;;;0.10;;
10096;SDS011;5087;42.662;23.466;2023-08-17T10:18:21;0.07;;;0.07;;
10096;SDS011;5087;42.662;23.466;2023-08-17T10:21:00;0.20;;;0.20;;
10096;SDS011;5087;42.662;23.466;2023-08-17T10:23:30;0.10;;;0.10;;
10096;SDS011;5087;42.662;23.466;2023-08-17T10:25:59;0.10;;;0.10;;
10096;SDS011;5087;42.662;23.466;2023-08-17T10:28:29;0.10;;;0.10;;
10096;SDS011;5087;42.662;23.466;2023-08-17T10:30:57;0.10;;;0.10;;
10096;SDS011;5087;42.662;23.466;2023-08-17T10:33:25;0.10;;;0.10;;
10096;SDS011;5087;42.662;23.466;2023-08-17T10:35:54;0.10;;;0.10;;
10096;SDS011;5087;42.662;23.466;2023-08-17T10:38:23;0.20;;;0.20;;
10096;SDS011;5087;42.662;23.466;2023-08-17T10:43:53;0.10;;;0.10;;
10096;SDS011;5087;42.662;23.466;2023-08-17T10:46:21;0.20;;;0.20;;
10096;SDS011;5087;42.662;23.466;2023-08-17T10:49:02;0.40;;;0.40;;
10096;SDS011;5087;42.662;23.466;2023-08-17T10:51:31;0.10;;;0.10;;
10096;SDS011;5087;42.662;23.466;2023-08-17T10:53:59;0.20;;;0.20;;
10096;SDS011;5087;42.662;23.466;2023-08-17T10:56:32;0.10;;;0.10;;
10096;SDS011;5087;42.662;23.466;2023-08-17T10:59:00;0.10;;;0.10;;
10096;SDS011;5087;42.662;23.466;2023-08-17T11:01:31;0.17;;;0.17;;
10096;SDS011;5087;42.662;23.466;2023-08-17T11:04:09;0.23;;;0.23;;
10096;SDS011;5087;42.662;23.466;2023-08-17T11:06:38;0.10;;;0.10;;
10096;SDS011;5087;42.662;23.466;2023-08-17T11:09:06;0.20;;;0.20;;
10096;SDS011;5087;42.662;23.466;2023-08-17T11:11:36;0.10;;;0.10;;
10096;SDS011;5087;42.662;23.466;2023-08-17T11:14:03;0.10;;;0.10;;
10096;SDS011;5087;42.662;23.466;2023-08-17T11:16:31;0.20;;;0.20;;
10096;SDS011;5087;42.662;23.466;2023-08-17T11:18:59;0.10;;;0.10;;
10096;SDS011;5087;42.662;23.466;2023-08-17T11:21:27;0.53;;;0.53;;
10096;SDS011;5087;42.662;23.466;2023-08-17T11:23:57;0.10;;;0.10;;
10096;SDS011;5087;42.662;23.466;2023-08-17T11:26:27;0.10;;;0.10;;
10096;SDS011;5087;42.662;23.466;2023-08-17T11:28:56;0.57;;;0.50;;
10096;SDS011;5087;42.662;23.466;2023-08-17T11:31:25;0.10;;;0.10;;
10096;SDS011;5087;42.662;23.466;2023-08-17T11:33:52;0.10;;;0.10;;
10096;SDS011;5087;42.662;23.466;2023-08-17T11:36:20;0.10;;;0.10;;
10096;SDS011;5087;42.662;23.466;2023-08-17T11:38:48;0.10;;;0.10;;
10096;SDS011;5087;42.662;23.466;2023-08-17T11:41:16;0.10;;;0.10;;
10096;SDS011;5087;42.662;23.466;2023-08-17T11:43:45;0.10;;;0.10;;
10096;SDS011;5087;42.662;23.466;2023-08-17T11:46:14;0.10;;;0.10;;
10096;SDS011;5087;42.662;23.466;2023-08-17T11:48:42;0.10;;;0.10;;
10096;SDS011;5087;42.662;23.466;2023-08-17T11:51:10;0.10;;;0.10;;
10096;SDS011;5087;42.662;23.466;2023-08-17T11:53:38;0.23;;;0.23;;
10096;SDS011;5087;42.662;23.466;2023-08-17T11:56:06;0.10;;;0.10;;
10096;SDS011;5087;42.662;23.466;2023-08-17T11:58:40;0.97;;;0.97;;
10096;SDS011;5087;42.662;23.466;2023-08-17T12:01:09;0.10;;;0.10;;
10096;SDS011;5087;42.662;23.466;2023-08-17T12:03:39;0.47;;;0.47;;
10096;SDS011;5087;42.662;23.466;2023-08-17T12:06:07;0.10;;;0.10;;
10096;SDS011;5087;42.662;23.466;2023-08-17T12:08:36;0.10;;;0.10;;
10096;SDS011;5087;42.662;23.466;2023-08-17T12:11:04;0.40;;;0.40;;
10096;SDS011;5087;42.662;23.466;2023-08-17T12:13:34;0.10;;;0.10;;
10096;SDS011;5087;42.662;23.466;2023-08-17T12:16:02;0.10;;;0.10;;
10096;SDS011;5087;42.662;23.466;2023-08-17T12:18:32;0.10;;;0.10;;
10096;SDS011;5087;42.662;23.466;2023-08-17T12:21:05;0.10;;;0.10;;
10096;SDS011;5087;42.662;23.466;2023-08-17T12:23:33;0.10;;;0.10;;
10096;SDS011;5087;42.662;23.466;2023-08-17T12:26:00;0.17;;;0.17;;
10096;SDS011;5087;42.662;23.466;2023-08-17T12:28:30;0.10;;;0.10;;
10096;SDS011;5087;42.662;23.466;2023-08-17T12:30:59;0.30;;;0.30;;
10096;SDS011;5087;42.662;23.466;2023-08-17T12:33:27;0.10;;;0.10;;
10096;SDS011;5087;42.662;23.466;2023-08-17T12:35:55;0.30;;;0.30;;
10096;SDS011;5087;42.662;23.466;2023-08-17T12:38:24;0.30;;;0.30;;
10096;SDS011;5087;42.662;23.466;2023-08-17T12:40:52;0.57;;;0.47;;
10096;SDS011;5087;42.662;23.466;2023-08-17T12:43:20;0.70;;;0.70;;
10096;SDS011;5087;42.662;23.466;2023-08-17T12:45:48;0.37;;;0.37;;
10096;SDS011;5087;42.662;23.466;2023-08-17T12:48:15;0.10;;;0.10;;
10096;SDS011;5087;42.662;23.466;2023-08-17T12:50:42;0.57;;;0.57;;
10096;SDS011;5087;42.662;23.466;2023-08-17T12:53:10;0.07;;;0.07;;
10096;SDS011;5087;42.662;23.466;2023-08-17T12:55:38;0.10;;;0.10;;
10096;SDS011;5087;42.662;23.466;2023-08-17T12:58:07;0.10;;;0.10;;
10096;SDS011;5087;42.662;23.466;2023-08-17T13:00:35;0.20;;;0.20;;
10096;SDS011;5087;42.662;23.466;2023-08-17T13:03:02;0.10;;;0.10;;
10096;SDS011;5087;42.662;23.466;2023-08-17T13:05:30;0.10;;;0.10;;
10096;SDS011;5087;42.662;23.466;2023-08-17T13:07:58;0.10;;;0.10;;
10096;SDS011;5087;42.662;23.466;2023-08-17T13:10:25;0.53;;;0.53;;
10096;SDS011;5087;42.662;23.466;2023-08-17T13:12:54;0.10;;;0.10;;
10096;SDS011;5087;42.662;23.466;2023-08-17T13:15:24;0.20;;;0.20;;
10096;SDS011;5087;42.662;23.466;2023-08-17T13:17:52;0.17;;;0.17;;
10096;SDS011;5087;42.662;23.466;2023-08-17T13:20:19;0.13;;;0.13;;
10096;SDS011;5087;42.662;23.466;2023-08-17T13:22:47;0.10;;;0.10;;
10096;SDS011;5087;42.662;23.466;2023-08-17T13:25:14;0.23;;;0.23;;
10096;SDS011;5087;42.662;23.466;2023-08-17T13:27:42;0.20;;;0.20;;
10096;SDS011;5087;42.662;23.466;2023-08-17T13:30:12;1.40;;;0.40;;
10096;SDS011;5087;42.662;23.466;2023-08-17T13:32:39;0.23;;;0.23;;
10096;SDS011;5087;42.662;23.466;2023-08-17T13:35:07;0.10;;;0.10;;
10096;SDS011;5087;42.662;23.466;2023-08-17T13:37:36;0.10;;;0.10;;
10096;SDS011;5087;42.662;23.466;2023-08-17T13:40:04;0.30;;;0.30;;
10096;SDS011;5087;42.662;23.466;2023-08-17T13:42:33;0.33;;;0.33;;
10096;SDS011;5087;42.662;23.466;2023-08-17T13:45:00;0.10;;;0.10;;
10096;SDS011;5087;42.662;23.466;2023-08-17T13:47:30;0.67;;;0.40;;
10096;SDS011;5087;42.662;23.466;2023-08-17T13:49:57;0.10;;;0.10;;
10096;SDS011;5087;42.662;23.466;2023-08-17T13:52:27;0.30;;;0.30;;
10096;SDS011;5087;42.662;23.466;2023-08-17T13:54:54;0.23;;;0.23;;
10096;SDS011;5087;42.662;23.466;2023-08-17T13:57:22;0.10;;;0.10;;
10096;SDS011;5087;42.662;23.466;2023-08-17T13:59:50;0.30;;;0.30;;
10096;SDS011;5087;42.662;23.466;2023-08-17T14:02:18;0.20;;;0.20;;
10096;SDS011;5087;42.662;23.466;2023-08-17T14:04:48;0.50;;;0.50;;
10096;SDS011;5087;42.662;23.466;2023-08-17T14:07:15;0.20;;;0.20;;
10096;SDS011;5087;42.662;23.466;2023-08-17T14:09:43;0.20;;;0.20;;
10096;SDS011;5087;42.662;23.466;2023-08-17T14:12:12;0.10;;;0.10;;
10096;SDS011;5087;42.662;23.466;2023-08-17T14:14:39;0.10;;;0.10;;
10096;SDS011;5087;42.662;23.466;2023-08-17T14:17:07;0.10;;;0.10;;
10096;SDS011;5087;42.662;23.466;2023-08-17T14:19:35;0.20;;;0.20;;
10096;SDS011;5087;42.662;23.466;2023-08-17T14:22:04;0.10;;;0.10;;
10096;SDS011;5087;42.662;23.466;2023-08-17T14:24:31;0.10;;;0.10;;
10096;SDS011;5087;42.662;23.466;2023-08-17T14:26:59;0.20;;;0.20;;
10096;SDS011;5087;42.662;23.466;2023-08-17T14:29:29;0.10;;;0.10;;
10096;SDS011;5087;42.662;23.466;2023-08-17T14:31:56;0.17;;;0.17;;
10096;SDS011;5087;42.662;23.466;2023-08-17T14:34:23;0.10;;;0.10;;
10096;SDS011;5087;42.662;23.466;2023-08-17T14:36:51;0.10;;;0.10;;
10096;SDS011;5087;42.662;23.466;2023-08-17T14:39:20;0.37;;;0.30;;
10096;SDS011;5087;42.662;23.466;2023-08-17T14:41:47;0.30;;;0.30;;
10096;SDS011;5087;42.662;23.466;2023-08-17T14:44:14;0.10;;;0.10;;
10096;SDS011;5087;42.662;23.466;2023-08-17T14:46:42;0.10;;;0.10;;
10096;SDS011;5087;42.662;23.466;2023-08-17T14:49:10;0.10;;;0.10;;
10096;SDS011;5087;42.662;23.466;2023-08-17T14:51:37;0.10;;;0.10;;
10096;SDS011;5087;42.662;23.466;2023-08-17T14:54:05;0.10;;;0.10;;
10096;SDS011;5087;42.662;23.466;2023-08-17T14:56:35;0.10;;;0.10;;
10096;SDS011;5087;42.662;23.466;2023-08-17T14:59:04;0.20;;;0.20;;
10096;SDS011;5087;42.662;23.466;2023-08-17T15:01:31;0.20;;;0.20;;